createdAt,value
2019-02-16T00:03:38.221Z,52.60
2019-02-16T00:08:44.209Z,52.50
2019-02-16T00:13:48.949Z,52.50
2019-02-16T00:18:53.688Z,52.50
2019-02-16T00:23:58.396Z,52.60
2019-02-16T00:29:03.427Z,52.60
2019-02-16T00:34:08.481Z,52.70
2019-02-16T00:39:13.153Z,52.60
2019-02-16T00:44:22.766Z,52.50
2019-02-16T00:49:25.001Z,52.30
2019-02-16T00:54:34.324Z,52.20
2019-02-16T00:59:39.305Z,52.50
2019-02-16T01:04:45.147Z,52.70
2019-02-16T01:09:51.697Z,52.80
2019-02-16T01:14:57.505Z,52.90
2019-02-16T01:20:02.488Z,52.70
2019-02-16T01:25:10.621Z,52.80
2019-02-16T01:30:18.613Z,52.80
2019-02-16T01:35:23.328Z,52.90
2019-02-16T01:40:28.037Z,52.90
2019-02-16T01:45:33.950Z,52.90
2019-02-16T01:50:38.992Z,52.60
2019-02-16T01:55:44.267Z,52.60
2019-02-16T02:00:49.690Z,52.80
2019-02-16T02:05:54.645Z,52.80
2019-02-16T02:11:01.236Z,53.00
2019-02-16T02:16:07.776Z,52.80
2019-02-16T02:21:13.030Z,52.80
2019-02-16T02:26:19.420Z,52.80
2019-02-16T02:31:25.614Z,52.60
2019-02-16T02:36:30.577Z,52.70
2019-02-16T02:41:36.605Z,52.70
2019-02-16T02:46:41.588Z,52.90
2019-02-16T02:51:52.209Z,52.90
2019-02-16T02:56:55.788Z,53.00
2019-02-16T03:02:00.491Z,52.90
2019-02-16T03:07:05.356Z,53.00
2019-02-16T03:12:10.068Z,53.10
2019-02-16T03:17:16.470Z,53.00
2019-02-16T03:22:21.172Z,53.10
2019-02-16T03:28:02.254Z,53.00
2019-02-16T03:33:16.966Z,52.90
2019-02-16T03:38:58.901Z,52.80
2019-02-16T03:44:05.841Z,52.90
2019-02-16T03:49:10.848Z,53.00
2019-02-16T03:54:17.179Z,53.10
2019-02-16T03:59:21.899Z,53.20
2019-02-16T04:04:26.634Z,53.10
2019-02-16T04:09:31.654Z,52.90
2019-02-16T04:14:36.356Z,52.90
2019-02-16T04:19:41.356Z,53.50
2019-02-16T04:24:46.507Z,52.70
2019-02-16T04:29:52.921Z,53.00
2019-02-16T04:34:58.608Z,53.00
2019-02-16T04:40:03.399Z,53.10
2019-02-16T04:45:08.759Z,53.10
2019-02-16T04:50:13.869Z,53.20
2019-02-16T04:55:18.577Z,53.00
2019-02-16T05:00:23.285Z,53.10
2019-02-16T05:05:28.265Z,53.00
2019-02-16T05:10:33.213Z,53.00
2019-02-16T05:15:39.196Z,53.10
2019-02-16T05:20:44.140Z,52.80
2019-02-16T05:25:53.092Z,53.10
2019-02-16T05:30:58.117Z,53.20
2019-02-16T05:36:03.084Z,53.40
2019-02-16T05:41:07.809Z,53.10
2019-02-16T05:46:12.782Z,52.90
2019-02-16T05:51:17.481Z,54.20
2019-02-16T05:56:23.838Z,53.70
2019-02-16T06:01:28.753Z,54.00
2019-02-16T06:06:33.681Z,54.00
2019-02-16T06:11:38.668Z,53.90
2019-02-16T06:16:43.766Z,53.70
2019-02-16T06:21:54.995Z,53.60
2019-02-16T06:26:54.886Z,53.80
2019-02-16T06:31:59.602Z,53.70
2019-02-16T06:37:25.233Z,53.80
2019-02-16T06:42:31.998Z,53.80
2019-02-16T06:47:36.980Z,53.60
2019-02-16T06:52:42.350Z,53.80
2019-02-16T06:57:50.405Z,53.40
2019-02-16T07:02:55.100Z,53.60
2019-02-16T07:08:01.391Z,53.70
2019-02-16T07:13:07.321Z,53.90
2019-02-16T07:18:31.568Z,54.00
2019-02-16T07:23:36.587Z,53.90
2019-02-16T07:28:42.241Z,54.10
2019-02-16T07:33:46.943Z,54.30
2019-02-16T07:38:51.919Z,54.60
2019-02-16T07:44:23.245Z,54.70
2019-02-16T07:49:45.220Z,55.00
2019-02-16T07:55:20.757Z,55.00
2019-02-16T08:00:44.536Z,55.00
2019-02-16T08:06:07.141Z,55.20
2019-02-16T08:11:43.539Z,55.40
2019-02-16T08:17:13.201Z,55.90
2019-02-16T08:22:44.257Z,56.10
2019-02-16T08:28:13.233Z,56.20
2019-02-16T08:33:38.677Z,56.30
2019-02-16T08:38:56.829Z,56.70
2019-02-16T08:44:23.396Z,56.50
2019-02-16T08:49:46.217Z,56.30
2019-02-16T08:55:28.178Z,56.40
2019-02-16T09:00:56.228Z,56.70
2019-02-16T09:06:19.993Z,57.60
2019-02-16T09:11:34.192Z,56.90
2019-02-16T09:16:45.675Z,56.90
2019-02-16T09:22:19.248Z,56.80
2019-02-16T09:27:45.927Z,56.80
2019-02-16T09:33:01.570Z,56.70
2019-02-16T09:38:25.419Z,56.60
2019-02-16T09:43:48.142Z,56.50
2019-02-16T09:49:11.928Z,56.80
2019-02-16T09:54:26.875Z,56.40
2019-02-16T09:59:39.627Z,56.60
2019-02-16T10:05:08.909Z,56.50
2019-02-16T10:10:22.763Z,56.60
2019-02-16T10:15:46.768Z,56.70
2019-02-16T10:21:14.707Z,57.20
2019-02-16T10:26:53.906Z,56.90
2019-02-16T10:32:26.577Z,56.80
2019-02-16T10:37:51.982Z,56.60
2019-02-16T10:43:21.589Z,56.70
2019-02-16T10:48:42.095Z,56.60
2019-02-16T10:53:55.145Z,56.60
2019-02-16T10:59:22.374Z,56.60
2019-02-16T11:04:44.303Z,56.70
2019-02-16T11:09:51.216Z,56.60
2019-02-16T11:15:18.665Z,56.60
2019-02-16T11:20:56.783Z,56.60
2019-02-16T11:26:23.489Z,56.60
2019-02-16T11:31:44.792Z,56.60
2019-02-16T11:36:58.785Z,56.40
2019-02-16T11:42:14.993Z,56.40
2019-02-16T11:47:41.740Z,56.40
2019-02-16T11:53:05.545Z,56.30
2019-02-16T11:58:35.952Z,56.40
2019-02-16T12:03:50.966Z,56.30
2019-02-16T12:09:24.994Z,56.30
2019-02-16T12:14:54.827Z,56.10
2019-02-16T12:20:05.269Z,56.00
2019-02-16T12:25:28.289Z,56.00
2019-02-16T12:30:43.312Z,55.90
2019-02-16T12:36:01.888Z,55.90
2019-02-16T12:41:25.896Z,56.10
2019-02-16T12:46:49.681Z,56.10
2019-02-16T12:52:18.070Z,56.10
2019-02-16T12:57:41.568Z,56.00
2019-02-16T13:02:58.005Z,55.80
2019-02-16T13:08:19.043Z,55.60
2019-02-16T13:13:42.864Z,55.50
2019-02-16T13:18:58.880Z,55.30
2019-02-16T13:24:10.947Z,55.00
2019-02-16T13:29:45.136Z,54.80
2019-02-16T13:35:09.527Z,55.60
2019-02-16T13:40:27.584Z,54.90
2019-02-16T13:45:48.951Z,54.80
2019-02-16T13:51:00.408Z,54.60
2019-02-16T13:56:23.085Z,54.60
2019-02-16T14:01:46.934Z,54.30
2019-02-16T14:07:20.085Z,54.30
2019-02-16T14:12:43.776Z,54.20
2019-02-16T14:17:48.610Z,53.80
2019-02-16T14:22:53.375Z,53.70
2019-02-16T14:27:58.434Z,53.80
2019-02-16T14:33:03.265Z,53.40
2019-02-16T14:38:30.613Z,53.40
2019-02-16T14:43:35.713Z,52.90
2019-02-16T14:48:40.486Z,52.70
2019-02-16T14:53:45.762Z,53.20
2019-02-16T14:58:50.826Z,52.40
2019-02-16T15:03:57.081Z,52.40
2019-02-16T15:09:05.190Z,52.20
2019-02-16T15:14:10.208Z,52.10
2019-02-16T15:19:14.962Z,52.00
2019-02-16T15:24:21.341Z,51.60
2019-02-16T15:29:27.887Z,51.50
2019-02-16T15:34:33.563Z,51.40
2019-02-16T15:39:38.376Z,51.40
2019-02-16T15:44:43.254Z,51.50
2019-02-16T15:49:49.229Z,51.60
2019-02-16T15:54:54.344Z,51.40
2019-02-16T15:59:59.223Z,51.30
2019-02-16T16:05:05.871Z,51.10
2019-02-16T16:10:19.100Z,50.90
2019-02-16T16:15:41.538Z,50.80
2019-02-16T16:20:57.863Z,50.70
2019-02-16T16:26:19.871Z,50.50
2019-02-16T16:31:32.937Z,50.50
2019-02-16T16:36:46.665Z,50.40
2019-02-16T16:41:58.336Z,50.60
2019-02-16T16:47:22.166Z,50.70
2019-02-16T16:52:55.755Z,50.80
2019-02-16T16:58:24.954Z,50.70
2019-02-16T17:03:47.853Z,50.70
2019-02-16T17:09:12.014Z,50.60
2019-02-16T17:14:39.040Z,50.60
2019-02-16T17:19:58.777Z,50.60
2019-02-16T17:25:13.273Z,50.40
2019-02-16T17:30:27.521Z,50.70
2019-02-16T17:35:51.294Z,50.70
2019-02-16T17:41:13.791Z,50.90
2019-02-16T17:46:40.853Z,51.10
2019-02-16T17:52:18.714Z,51.00
2019-02-16T17:57:30.378Z,51.00
2019-02-16T18:02:52.758Z,50.90
2019-02-16T18:08:15.784Z,51.10
2019-02-16T18:13:38.636Z,51.50
2019-02-16T18:19:08.695Z,51.30
2019-02-16T18:24:32.494Z,51.40
2019-02-16T18:29:59.274Z,51.40
2019-02-16T18:35:24.688Z,51.20
2019-02-16T18:40:47.381Z,52.00
2019-02-16T18:46:10.220Z,51.50
2019-02-16T18:51:50.260Z,51.50
2019-02-16T18:57:13.473Z,51.70
2019-02-16T19:02:42.319Z,51.60
2019-02-16T19:08:05.014Z,51.50
2019-02-16T19:13:29.656Z,51.50
2019-02-16T19:18:59.463Z,51.60
2019-02-16T19:24:13.403Z,51.80
2019-02-16T19:29:35.071Z,51.80
2019-02-16T19:34:54.225Z,52.00
2019-02-16T19:40:21.086Z,52.00
2019-02-16T19:45:45.812Z,51.80
2019-02-16T19:50:59.349Z,51.90
2019-02-16T19:56:26.115Z,51.90
2019-02-16T20:01:48.622Z,51.80
2019-02-16T20:07:28.957Z,51.80
2019-02-16T20:12:52.755Z,52.00
2019-02-16T20:18:14.667Z,52.10
2019-02-16T20:23:40.113Z,52.30
2019-02-16T20:28:53.300Z,52.10
2019-02-16T20:34:17.402Z,51.90
2019-02-16T20:39:32.017Z,51.70
2019-02-16T20:44:51.867Z,51.80
2019-02-16T20:50:14.745Z,52.00
2019-02-16T20:55:47.034Z,52.00
2019-02-16T21:01:10.262Z,52.10
2019-02-16T21:06:33.279Z,52.50
2019-02-16T21:12:06.683Z,52.40
2019-02-16T21:17:29.370Z,52.20
2019-02-16T21:22:58.491Z,52.30
2019-02-16T21:28:24.310Z,52.40
2019-02-16T21:33:56.369Z,52.50
2019-02-16T21:39:21.844Z,52.40
2019-02-16T21:44:35.754Z,52.30
2019-02-16T21:49:58.451Z,52.30
2019-02-16T21:55:19.736Z,52.40
2019-02-16T22:00:49.465Z,52.50
2019-02-16T22:06:13.493Z,52.70
2019-02-16T22:11:36.521Z,52.70
2019-02-16T22:16:41.506Z,52.90
2019-02-16T22:21:46.191Z,52.70
2019-02-16T22:26:51.117Z,52.60
2019-02-16T22:31:57.598Z,52.80
2019-02-16T22:37:04.073Z,52.60
2019-02-16T22:42:08.772Z,52.60
2019-02-16T22:47:13.541Z,52.60
2019-02-16T22:52:19.864Z,52.80
2019-02-16T22:57:24.624Z,52.90
2019-02-16T23:02:29.449Z,53.10
2019-02-16T23:07:34.377Z,53.00
2019-02-16T23:12:39.202Z,53.10
2019-02-16T23:17:45.039Z,53.10
2019-02-16T23:22:49.875Z,53.00
2019-02-16T23:27:54.639Z,52.80
2019-02-16T23:33:00.245Z,52.70
2019-02-16T23:38:05.109Z,52.80
2019-02-16T23:43:09.965Z,52.90
2019-02-16T23:48:14.678Z,53.10
2019-02-16T23:53:19.872Z,53.10
2019-02-16T23:58:29.229Z,53.10
